Time;durP1;ratioP1;P1;durP2;ratioP2;P2;SDS_P1;SDS_P2;PMS_P1;PMS_P2;Temp;Humidity;BMP_temperature;BMP_pressure;BME280_temperature;BME280_humidity;BME280_pressure;Samples;Min_cycle;Max_cycle;Signal;HPM_P1;HPM_P2
2021/12/07 00:01:05;;;;;;;29.80;10.40;;;3.30;99.90;;;;;;5014660;28;20540;-72
2021/12/07 00:03:32;;;;;;;32.50;10.20;;;3.30;99.90;;;;;;5014012;28;20222;-72
2021/12/07 00:05:59;;;;;;;31.47;10.50;;;3.30;99.90;;;;;;5013607;28;20229;-72
2021/12/07 00:08:27;;;;;;;27.17;10.57;;;3.40;99.90;;;;;;5016173;28;20244;-72
2021/12/07 00:10:54;;;;;;;24.57;8.70;;;3.40;99.90;;;;;;5013169;28;20210;-71
2021/12/07 00:13:22;;;;;;;32.50;10.13;;;3.40;99.90;;;;;;5014041;28;20224;-72
2021/12/07 00:15:49;;;;;;;27.30;8.13;;;3.40;99.90;;;;;;5012475;28;20206;-71
2021/12/07 00:18:17;;;;;;;39.40;14.03;;;3.30;99.90;;;;;;5012508;28;20240;-71
2021/12/07 00:20:44;;;;;;;37.27;12.77;;;3.30;99.90;;;;;;5012323;28;20719;-72
2021/12/07 00:23:12;;;;;;;34.53;12.50;;;3.30;99.90;;;;;;5012654;28;20210;-71
2021/12/07 00:25:39;;;;;;;40.23;13.00;;;3.30;99.90;;;;;;5012388;28;20627;-71
2021/12/07 00:28:06;;;;;;;35.83;12.93;;;3.30;99.90;;;;;;5013878;28;20750;-71
2021/12/07 00:30:34;;;;;;;37.20;12.57;;;3.40;99.90;;;;;;5014840;28;20238;-71
2021/12/07 00:33:16;;;;;;;41.03;13.67;;;3.40;99.90;;;;;;5015481;28;20300;-72
2021/12/07 00:35:44;;;;;;;34.03;12.43;;;3.40;99.90;;;;;;5011906;28;20303;-72
2021/12/07 00:38:15;;;;;;;37.30;12.53;;;3.50;99.90;;;;;;5012454;28;20237;-71
2021/12/07 00:40:43;;;;;;;40.90;13.87;;;3.50;99.90;;;;;;5012039;28;20719;-71
2021/12/07 00:43:10;;;;;;;41.87;13.63;;;3.50;99.90;;;;;;5014086;28;20210;-70
2021/12/07 00:45:39;;;;;;;43.00;13.87;;;3.50;99.90;;;;;;5009357;28;20471;-70
2021/12/07 00:48:08;;;;;;;37.53;13.13;;;3.60;99.90;;;;;;5015240;28;20230;-71
2021/12/07 00:50:36;;;;;;;36.87;13.33;;;3.70;99.90;;;;;;5018685;28;20224;-71
2021/12/07 00:55:43;;;;;;;52.73;15.70;;;3.70;99.90;;;;;;4996743;28;20291;-69
2021/12/07 00:58:17;;;;;;;43.80;13.63;;;3.70;99.90;;;;;;5000781;28;20207;-69
2021/12/07 01:00:47;;;;;;;47.60;14.67;;;3.70;99.90;;;;;;5012358;28;20355;-69
2021/12/07 01:03:14;;;;;;;45.37;14.00;;;3.80;99.90;;;;;;4999791;28;20241;-68
2021/12/07 01:05:47;;;;;;;53.73;15.23;;;3.70;99.90;;;;;;4998774;28;20250;-68
2021/12/07 01:08:27;;;;;;;46.63;14.70;;;3.80;99.90;;;;;;4998622;28;20758;-69
2021/12/07 01:24:41;;;;;;;51.27;15.13;;;3.80;99.90;;;;;;4988117;28;20230;-70
2021/12/07 01:27:11;;;;;;;51.60;14.67;;;3.80;99.90;;;;;;4991607;28;20274;-69
2021/12/07 01:29:42;;;;;;;61.00;16.27;;;3.70;99.90;;;;;;4988420;28;20218;-68
2021/12/07 01:32:20;;;;;;;63.03;17.53;;;3.60;99.90;;;;;;4988387;28;20218;-69
2021/12/07 01:37:43;;;;;;;58.20;15.30;;;3.60;99.90;;;;;;4980685;28;20867;-69
2021/12/07 01:40:28;;;;;;;49.73;12.97;;;3.50;99.90;;;;;;4989888;28;20293;-69
2021/12/07 01:43:28;;;;;;;53.17;14.80;;;2.60;99.90;;;;;;4994534;28;20596;-69
2021/12/07 01:46:12;;;;;;;51.50;13.87;;;3.40;99.90;;;;;;4990527;28;20784;-69
2021/12/07 01:51:44;;;;;;;50.47;13.87;;;3.40;99.90;;;;;;4990842;28;20218;-68
2021/12/07 02:00:00;;;;;;;45.70;14.07;;;3.40;99.90;;;;;;4988370;28;20245;-67
2021/12/07 02:02:30;;;;;;;47.20;14.40;;;3.40;99.90;;;;;;4995350;28;20219;-69
2021/12/07 02:04:57;;;;;;;40.77;13.77;;;3.50;99.90;;;;;;4995477;28;20241;-69
2021/12/07 02:07:28;;;;;;;41.23;12.63;;;3.50;99.90;;;;;;4995633;28;20235;-69
2021/12/07 02:09:58;;;;;;;48.57;16.00;;;3.50;99.90;;;;;;4994139;28;20210;-69
2021/12/07 02:12:28;;;;;;;79.67;20.40;;;3.60;99.90;;;;;;4994644;28;20213;-69
2021/12/07 02:14:55;;;;;;;74.30;20.47;;;3.60;99.90;;;;;;4995207;28;20234;-69
2021/12/07 02:17:26;;;;;;;58.33;16.40;;;3.20;99.90;;;;;;5003430;28;20684;-69
2021/12/07 02:19:54;;;;;;;47.83;12.63;;;3.60;99.90;;;;;;4996260;28;20211;-69
2021/12/07 02:22:23;;;;;;;61.47;16.17;;;3.60;99.90;;;;;;4995442;28;20234;-67
2021/12/07 02:24:53;;;;;;;65.63;18.13;;;3.70;99.90;;;;;;5011268;28;20243;-68
2021/12/07 02:27:21;;;;;;;89.23;24.80;;;3.70;99.90;;;;;;5004749;28;20320;-68
2021/12/07 02:29:48;;;;;;;53.70;13.50;;;3.70;99.90;;;;;;4995227;28;20648;-69
2021/12/07 02:32:15;;;;;;;46.57;13.23;;;3.70;99.90;;;;;;4995393;28;20597;-68
2021/12/07 02:34:53;;;;;;;57.80;15.87;;;3.80;99.90;;;;;;4993879;28;20242;-68
2021/12/07 02:37:23;;;;;;;47.03;14.97;;;3.80;99.90;;;;;;4995674;28;20265;-69
2021/12/07 02:39:50;;;;;;;44.67;12.03;;;3.80;99.90;;;;;;4994393;28;20521;-69
2021/12/07 02:42:17;;;;;;;47.23;13.00;;;3.80;99.90;;;;;;4996623;28;20218;-69
2021/12/07 02:44:44;;;;;;;60.10;18.03;;;3.90;99.90;;;;;;4993229;28;20244;-69
2021/12/07 02:47:14;;;;;;;50.73;13.93;;;3.90;99.90;;;;;;4988719;28;20239;-67
2021/12/07 02:49:41;;;;;;;46.37;17.23;;;4.00;99.90;;;;;;4996701;28;20223;-69
2021/12/07 02:52:08;;;;;;;55.07;16.47;;;4.00;99.90;;;;;;4996799;28;20225;-68
2021/12/07 02:54:44;;;;;;;55.93;18.03;;;4.10;99.90;;;;;;4991925;28;20250;-68
2021/12/07 02:57:12;;;;;;;62.27;17.80;;;4.20;99.90;;;;;;4995673;28;20206;-68
2021/12/07 02:59:42;;;;;;;76.90;23.23;;;4.20;99.90;;;;;;4996254;28;21100;-68
2021/12/07 03:02:11;;;;;;;66.80;16.80;;;4.30;99.90;;;;;;4997992;28;20214;-68
2021/12/07 03:04:45;;;;;;;76.77;21.20;;;4.30;99.90;;;;;;4993639;28;20601;-69
2021/12/07 03:07:19;;;;;;;45.17;13.03;;;4.40;99.90;;;;;;5011434;28;20345;-69
2021/12/07 03:25:48;;;;;;;48.87;13.73;;;4.10;99.90;;;;;;5011557;28;20209;-69
2021/12/07 03:26:29;;;;;;;58.50;16.70;;;4.80;99.90;;;;;;4992289;28;20438;-68
2021/12/07 03:28:59;;;;;;;55.37;15.90;;;4.80;99.90;;;;;;4993506;28;20219;-68
2021/12/07 03:31:29;;;;;;;47.87;14.77;;;4.90;99.90;;;;;;4984811;28;20211;-68
2021/12/07 03:33:59;;;;;;;55.97;17.63;;;4.90;99.90;;;;;;4993456;28;21251;-68
2021/12/07 03:36:30;;;;;;;53.93;15.60;;;5.00;99.90;;;;;;4994611;28;20277;-68
2021/12/07 03:38:59;;;;;;;77.13;21.70;;;5.00;99.90;;;;;;4994041;28;20215;-69
2021/12/07 03:41:26;;;;;;;60.60;18.33;;;5.00;99.90;;;;;;4992717;28;20214;-68
2021/12/07 03:43:55;;;;;;;51.30;15.80;;;5.00;99.90;;;;;;4985651;28;20621;-68
2021/12/07 03:46:22;;;;;;;60.93;17.67;;;5.00;99.90;;;;;;4993277;28;20272;-68
2021/12/07 03:48:51;;;;;;;61.47;17.20;;;4.90;99.90;;;;;;4984026;28;20210;-68
2021/12/07 03:51:18;;;;;;;44.93;15.30;;;4.90;99.90;;;;;;4992146;28;20832;-68
2021/12/07 03:53:45;;;;;;;53.13;16.33;;;4.90;99.90;;;;;;4993367;28;20234;-68
2021/12/07 03:56:13;;;;;;;51.33;16.20;;;4.90;99.90;;;;;;4994915;28;20580;-68
2021/12/07 03:58:41;;;;;;;50.90;13.40;;;4.80;99.90;;;;;;4996674;28;20758;-68
2021/12/07 04:01:12;;;;;;;77.60;21.40;;;4.80;99.90;;;;;;4991810;28;20222;-68
2021/12/07 04:03:41;;;;;;;;;;;4.80;99.90;;;;;;4994956;28;20238;-68
2021/12/07 04:06:10;;;;;;;94.10;28.07;;;4.80;99.90;;;;;;4991285;28;20242;-69
2021/12/07 04:08:42;;;;;;;77.70;22.63;;;4.80;99.90;;;;;;4988996;28;20241;-69
2021/12/07 04:11:11;;;;;;;;;;;6.30;99.90;;;;;;4989324;28;20323;-69
2021/12/07 04:13:40;;;;;;;;;;;4.80;99.90;;;;;;4990383;28;19936;-69
2021/12/07 04:16:09;;;;;;;;;;;4.80;99.90;;;;;;4989119;28;19929;-67
2021/12/07 04:18:37;;;;;;;;;;;4.80;99.90;;;;;;4988098;28;20145;-69
2021/12/07 04:21:04;;;;;;;;;;;4.70;99.90;;;;;;4987453;28;19979;-68
2021/12/07 04:23:32;;;;;;;;;;;4.70;99.90;;;;;;4991565;28;20016;-68
2021/12/07 04:25:59;;;;;;;;;;;4.70;99.90;;;;;;4991851;28;20012;-68
2021/12/07 04:28:26;;;;;;;;;;;4.70;99.90;;;;;;4991384;28;19961;-69
2021/12/07 04:30:53;;;;;;;;;;;4.70;99.90;;;;;;4992010;28;20464;-68
2021/12/07 04:33:19;;;;;;;;;;;4.70;99.90;;;;;;4990687;28;20413;-68
2021/12/07 04:35:50;;;;;;;;;;;4.70;99.90;;;;;;4995287;28;19941;-69
2021/12/07 04:38:17;;;;;;;;;;;4.70;99.90;;;;;;4994070;28;19929;-68
2021/12/07 04:40:44;;;;;;;;;;;4.60;99.90;;;;;;4994991;28;21232;-68
2021/12/07 04:43:11;;;;;;;;;;;4.60;99.90;;;;;;4994347;28;20023;-68
2021/12/07 04:45:51;;;;;;;;;;;5.00;99.90;;;;;;4993755;28;19933;-69
2021/12/07 04:48:47;;;;;;;;;;;4.50;99.90;;;;;;4998363;28;20695;-69
2021/12/07 04:59:28;;;;;;;;;;;4.40;99.90;;;;;;5002418;28;19921;-67
2021/12/07 05:01:55;;;;;;;;;;;4.40;99.90;;;;;;4999182;28;19936;-68
2021/12/07 05:04:26;;;;;;;;;;;4.50;99.90;;;;;;4995707;28;19929;-67
2021/12/07 05:07:01;;;;;;;;;;;4.70;99.90;;;;;;5000974;28;19930;-67
2021/12/07 05:12:25;;;;;;;;;;;4.80;99.90;;;;;;4976083;28;20307;-68
2021/12/07 05:15:00;;;;;;;;;;;4.90;99.90;;;;;;4999237;28;20417;-68
2021/12/07 05:17:44;;;;;;;;;;;4.90;99.90;;;;;;5000221;28;19929;-67
2021/12/07 05:39:21;;;;;;;;;;;4.70;99.90;;;;;;4995045;28;20402;-68
2021/12/07 05:41:48;;;;;;;;;;;4.70;99.90;;;;;;4995283;28;19944;-68
2021/12/07 05:44:15;;;;;;;;;;;4.70;99.90;;;;;;4996159;28;20027;-67
2021/12/07 05:46:41;;;;;;;;;;;4.70;99.90;;;;;;4998722;28;19937;-68
2021/12/07 05:49:08;;;;;;;;;;;4.80;99.90;;;;;;4997045;28;19936;-68
2021/12/07 05:51:35;;;;;;;;;;;4.80;99.90;;;;;;5004516;28;19930;-68
2021/12/07 05:54:02;;;;;;;;;;;4.80;99.90;;;;;;4993829;28;20758;-68
2021/12/07 05:56:30;;;;;;;;;;;4.80;99.90;;;;;;4994673;28;19929;-67
2021/12/07 05:58:57;;;;;;;;;;;4.80;99.90;;;;;;4992493;28;20283;-67
2021/12/07 06:01:23;;;;;;;;;;;4.90;99.90;;;;;;4988395;28;19930;-68
2021/12/07 06:03:50;;;;;;;;;;;5.00;99.90;;;;;;4988527;28;19929;-68
2021/12/07 06:06:17;;;;;;;;;;;5.00;99.90;;;;;;4989485;28;20430;-68
2021/12/07 06:08:43;;;;;;;;;;;5.10;99.90;;;;;;4988711;28;19930;-68
2021/12/07 06:11:10;;;;;;;;;;;5.10;99.90;;;;;;4989164;28;19936;-68
2021/12/07 06:13:38;;;;;;;;;;;5.10;99.90;;;;;;4993420;28;20000;-68
2021/12/07 06:16:07;;;;;;;;;;;5.20;99.90;;;;;;4992624;28;19929;-68
2021/12/07 06:18:35;;;;;;;;;;;5.10;99.90;;;;;;4991625;28;19925;-68
2021/12/07 06:21:02;;;;;;;;;;;5.10;99.90;;;;;;5006643;28;20325;-68
2021/12/07 06:23:29;;;;;;;;;;;5.10;99.90;;;;;;5003269;28;20185;-68
2021/12/07 06:25:58;;;;;;;;;;;5.10;99.90;;;;;;5005418;28;19929;-69
2021/12/07 06:28:24;;;;;;;;;;;5.00;99.90;;;;;;5013522;28;20040;-69
2021/12/07 06:30:53;;;;;;;;;;;5.00;99.90;;;;;;5007127;28;20490;-68
2021/12/07 06:33:21;;;;;;;;;;;4.90;99.90;;;;;;5005848;28;19933;-68
2021/12/07 06:35:49;;;;;;;;;;;4.80;99.90;;;;;;5004631;28;20104;-68
2021/12/07 06:38:17;;;;;;;;;;;4.80;99.90;;;;;;5004066;28;19921;-68
2021/12/07 06:40:44;;;;;;;;;;;4.80;99.90;;;;;;5002804;28;20351;-68
2021/12/07 06:43:11;;;;;;;;;;;4.80;99.90;;;;;;5005742;28;19925;-68
2021/12/07 06:45:38;;;;;;;;;;;4.80;99.90;;;;;;5005008;28;20397;-68
2021/12/07 06:48:06;;;;;;;;;;;4.80;99.90;;;;;;5004286;28;19922;-68
2021/12/07 06:50:33;;;;;;;;;;;4.80;99.90;;;;;;4999205;28;19964;-68
2021/12/07 06:52:59;;;;;;;;;;;4.70;99.90;;;;;;4993982;28;19925;-68
2021/12/07 06:55:27;;;;;;;;;;;4.70;99.90;;;;;;5002344;28;19928;-67
2021/12/07 06:57:53;;;;;;;;;;;4.60;99.90;;;;;;4995549;28;19926;-68
2021/12/07 07:00:20;;;;;;;;;;;4.60;99.90;;;;;;4993386;28;19922;-68
2021/12/07 07:02:47;;;;;;;;;;;4.60;99.90;;;;;;4995402;28;19929;-68
2021/12/07 07:05:16;;;;;;;;;;;4.50;99.90;;;;;;4995481;28;19928;-69
2021/12/07 07:07:43;;;;;;;;;;;4.40;99.90;;;;;;4989090;28;19930;-68
2021/12/07 07:10:11;;;;;;;;;;;4.40;99.90;;;;;;4998681;28;19932;-69
2021/12/07 07:12:38;;;;;;;;;;;4.40;99.90;;;;;;4996018;28;19932;-69
2021/12/07 07:15:06;;;;;;;;;;;4.40;99.90;;;;;;4992722;28;20026;-68
2021/12/07 07:17:33;;;;;;;;;;;4.30;99.90;;;;;;4994696;28;19929;-69
2021/12/07 07:19:59;;;;;;;;;;;4.30;99.90;;;;;;4998228;28;20338;-69
2021/12/07 07:22:27;;;;;;;;;;;4.30;99.90;;;;;;5004557;28;19940;-69
2021/12/07 07:24:54;;;;;;;;;;;4.20;99.90;;;;;;5005123;28;19922;-69
2021/12/07 07:27:21;;;;;;;;;;;5.50;99.90;;;;;;5003313;28;20305;-69
2021/12/07 07:29:48;;;;;;;;;;;4.30;99.90;;;;;;5002236;28;19929;-69
2021/12/07 07:32:15;;;;;;;;;;;4.20;99.90;;;;;;5002149;28;20351;-69
2021/12/07 07:34:41;;;;;;;;;;;4.20;99.90;;;;;;5005070;28;19933;-69
2021/12/07 07:37:08;;;;;;;;;;;4.20;99.90;;;;;;5007634;28;20894;-69
2021/12/07 07:39:36;;;;;;;;;;;4.20;99.90;;;;;;5002402;28;19930;-69
2021/12/07 07:42:03;;;;;;;;;;;4.20;99.90;;;;;;5004589;28;19921;-69
2021/12/07 07:44:43;;;;;;;;;;;4.20;99.90;;;;;;4998523;28;19976;-69
2021/12/07 07:47:10;;;;;;;;;;;4.20;99.90;;;;;;4992781;28;19929;-69
2021/12/07 07:49:37;;;;;;;;;;;4.20;99.90;;;;;;4994163;28;19936;-69
2021/12/07 07:52:04;;;;;;;;;;;4.30;99.90;;;;;;5007748;28;19932;-69
2021/12/07 07:54:30;;;;;;;;;;;4.30;99.90;;;;;;5006461;28;19925;-69
2021/12/07 07:56:58;;;;;;;;;;;4.20;99.90;;;;;;5003536;28;20181;-69
2021/12/07 07:59:25;;;;;;;;;;;4.20;99.90;;;;;;5012384;28;19922;-69
2021/12/07 08:01:52;;;;;;;;;;;4.20;99.90;;;;;;5008213;28;19925;-69
2021/12/07 08:04:19;;;;;;;;;;;4.20;99.90;;;;;;5010422;28;19926;-69
2021/12/07 08:06:45;;;;;;;;;;;4.20;99.90;;;;;;5003543;28;20276;-68
2021/12/07 08:09:13;;;;;;;;;;;4.20;99.90;;;;;;5004014;28;19932;-69
2021/12/07 08:11:40;;;;;;;;;;;4.20;99.90;;;;;;5006920;28;19929;-69
2021/12/07 08:14:08;;;;;;;;;;;4.20;99.90;;;;;;5006348;28;19926;-68
2021/12/07 08:16:35;;;;;;;;;;;4.20;99.90;;;;;;5008799;28;19932;-68
2021/12/07 08:19:02;;;;;;;;;;;4.10;99.90;;;;;;5004908;28;20410;-68
2021/12/07 08:21:30;;;;;;;;;;;4.30;99.90;;;;;;5004932;28;20010;-68
2021/12/07 08:23:57;;;;;;;;;;;4.30;99.90;;;;;;5007501;28;19932;-68
2021/12/07 08:26:24;;;;;;;;;;;4.30;99.90;;;;;;5019337;28;19928;-68
2021/12/07 08:28:51;;;;;;;;;;;4.40;99.90;;;;;;5006209;28;19929;-68
2021/12/07 08:31:20;;;;;;;;;;;4.50;99.90;;;;;;4997179;28;19928;-68
2021/12/07 08:33:46;;;;;;;;;;;4.60;99.90;;;;;;5005096;28;19928;-68
2021/12/07 08:36:13;;;;;;;;;;;4.70;99.90;;;;;;5004312;28;19925;-68
2021/12/07 08:38:40;;;;;;;;;;;4.70;99.90;;;;;;5004445;28;19925;-68
2021/12/07 08:41:07;;;;;;;;;;;4.80;99.90;;;;;;5007912;28;19936;-70
2021/12/07 08:43:40;;;;;;;;;;;4.90;99.90;;;;;;5001844;28;19935;-69
2021/12/07 08:46:08;;;;;;;;;;;4.90;99.90;;;;;;5001775;28;20254;-69
2021/12/07 08:48:36;;;;;;;;;;;5.00;99.90;;;;;;5000785;28;19929;-69
2021/12/07 08:51:03;;;;;;;;;;;5.10;99.90;;;;;;5018083;22;20639;-72
2021/12/07 08:53:30;;;;;;;;;;;5.10;99.90;;;;;;5020852;28;20673;-71
2021/12/07 09:01:27;;;;;;;;;;;5.30;99.90;;;;;;5000817;28;20696;-71
2021/12/07 09:03:56;;;;;;;;;;;5.30;99.90;;;;;;5027793;28;19952;-71
2021/12/07 09:06:23;;;;;;;;;;;5.40;99.90;;;;;;5022337;28;19925;-71
2021/12/07 09:08:50;;;;;;;;;;;5.40;99.90;;;;;;5037401;28;20184;-71
2021/12/07 09:11:17;;;;;;;;;;;5.50;99.90;;;;;;5026368;28;19932;-73
2021/12/07 09:13:44;;;;;;;;;;;5.50;99.90;;;;;;5023858;28;19925;-73
2021/12/07 09:16:12;;;;;;;;;;;5.60;99.90;;;;;;5024412;28;19925;-72
2021/12/07 09:18:38;;;;;;;;;;;5.60;99.90;;;;;;5028572;28;19931;-70
2021/12/07 09:21:07;;;;;;;;;;;5.70;99.90;;;;;;5026946;28;19940;-70
2021/12/07 09:23:34;;;;;;;;;;;5.80;99.90;;;;;;5021102;28;19951;-70
2021/12/07 09:26:01;;;;;;;;;;;5.90;99.90;;;;;;5026804;28;20546;-70
2021/12/07 09:28:28;;;;;;;;;;;6.00;99.90;;;;;;5024351;28;19975;-71
2021/12/07 09:30:55;;;;;;;;;;;6.10;99.90;;;;;;5025730;28;19925;-72
2021/12/07 09:33:22;;;;;;;;;;;6.10;99.90;;;;;;5029405;28;19925;-72
2021/12/07 09:35:49;;;;;;;;;;;6.10;99.90;;;;;;5024452;28;19925;-72
2021/12/07 09:38:17;;;;;;;;;;;6.20;99.90;;;;;;5027961;28;19925;-72
2021/12/07 09:40:44;;;;;;;;;;;6.30;99.90;;;;;;5025872;28;19925;-72
2021/12/07 09:43:12;;;;;;;;;;;6.30;99.90;;;;;;5023374;28;19932;-72
2021/12/07 09:45:40;;;;;;;;;;;6.40;99.90;;;;;;5030058;28;19925;-73
2021/12/07 09:48:07;;;;;;;;;;;6.40;99.90;;;;;;5027766;28;19925;-72
2021/12/07 09:50:36;;;;;;;;;;;6.50;99.90;;;;;;5021659;28;19932;-72
2021/12/07 09:53:03;;;;;;;;;;;6.70;99.90;;;;;;5016683;28;20504;-73
2021/12/07 09:55:32;;;;;;;;;;;6.70;99.90;;;;;;5023490;28;19980;-73
2021/12/07 09:57:58;;;;;;;;;;;6.80;99.90;;;;;;4997397;28;19940;-73
2021/12/07 10:00:26;;;;;;;;;;;6.90;99.90;;;;;;5024246;28;19932;-73
2021/12/07 10:02:54;;;;;;;;;;;7.00;99.90;;;;;;5007734;28;20351;-72
2021/12/07 10:05:22;;;;;;;;;;;7.00;99.90;;;;;;5025520;28;20281;-73
2021/12/07 10:07:50;;;;;;;;;;;7.10;99.90;;;;;;5019480;28;19920;-73
2021/12/07 10:10:22;;;;;;;;;;;7.20;99.90;;;;;;5008248;28;20373;-72
2021/12/07 10:12:50;;;;;;;;;;;7.30;99.90;;;;;;5022401;28;20391;-72
2021/12/07 10:15:17;;;;;;;;;;;7.30;99.90;;;;;;5022708;28;19940;-72
2021/12/07 10:17:58;;;;;;;;;;;7.40;99.90;;;;;;5025190;28;19928;-72
2021/12/07 10:20:31;;;;;;;;;;;7.50;99.90;;;;;;5027082;28;19944;-72
2021/12/07 10:23:02;;;;;;;;;;;7.60;99.90;;;;;;5011748;28;20315;-72
2021/12/07 10:25:28;;;;;;;;;;;7.60;99.90;;;;;;5025594;28;19987;-71
2021/12/07 10:27:57;;;;;;;;;;;7.70;99.90;;;;;;5024583;28;19932;-70
2021/12/07 10:30:27;;;;;;;;;;;7.80;99.90;;;;;;5024996;28;20389;-70
2021/12/07 10:32:57;;;;;;;;;;;7.90;99.90;;;;;;5024740;28;19921;-71
2021/12/07 10:35:28;;;;;;;;;;;8.10;99.90;;;;;;5026281;28;20235;-71
2021/12/07 10:38:08;;;;;;;;;;;8.20;99.90;;;;;;5024522;28;19944;-71
2021/12/07 10:40:35;;;;;;;;;;;8.30;99.90;;;;;;5007288;28;19925;-71
2021/12/07 10:43:03;;;;;;;;;;;8.40;99.90;;;;;;5022823;28;20294;-71
2021/12/07 10:45:30;;;;;;;;;;;8.50;99.90;;;;;;5023045;28;19925;-71
2021/12/07 10:47:58;;;;;;;;;;;8.50;99.90;;;;;;5023961;28;19929;-71
2021/12/07 10:50:25;;;;;;;;;;;8.60;99.90;;;;;;5003458;28;19929;-71
2021/12/07 10:52:51;;;;;;;;;;;8.50;99.90;;;;;;5024262;28;19947;-70
2021/12/07 10:55:19;;;;;;;;;;;10.50;99.90;;;;;;5018495;28;19926;-72
2021/12/07 10:57:48;;;;;;;;;;;8.90;99.90;;;;;;5018422;28;19932;-72
2021/12/07 11:00:20;;;;;;;;;;;9.00;99.90;;;;;;5023935;28;19997;-71
2021/12/07 11:02:48;;;;;;;;;;;9.10;99.90;;;;;;5025638;28;19971;-71
2021/12/07 11:05:17;;;;;;;;;;;9.20;99.90;;;;;;5025129;28;19936;-72
2021/12/07 11:07:43;;;;;;;;;;;9.30;99.90;;;;;;5008439;28;20397;-71
2021/12/07 11:10:15;;;;;;;;;;;9.30;99.90;;;;;;5017117;28;19921;-72
2021/12/07 11:12:48;;;;;;;;;;;9.40;99.90;;;;;;5019912;28;19928;-72
2021/12/07 11:15:21;;;;;;;;;;;9.50;99.90;;;;;;5023377;28;19991;-72
2021/12/07 11:17:49;;;;;;;;;;;9.70;99.90;;;;;;5024567;28;19929;-71
2021/12/07 11:20:16;;;;;;;;;;;9.70;99.90;;;;;;5006049;28;20266;-71
2021/12/07 11:22:45;;;;;;;;;;;11.30;99.90;;;;;;5013545;28;19929;-71
2021/12/07 11:25:14;;;;;;;;;;;9.70;99.90;;;;;;5014869;28;20108;-72
2021/12/07 11:30:31;;;;;;;;;;;9.90;99.90;;;;;;4992028;28;19968;-71
2021/12/07 11:33:01;;;;;;;;;;;10.00;99.90;;;;;;5016724;28;19951;-71
2021/12/07 11:35:29;;;;;;;;;;;10.10;99.90;;;;;;5022661;28;19928;-71
2021/12/07 11:37:56;;;;;;;;;;;10.20;99.90;;;;;;5015367;28;19932;-72
2021/12/07 11:40:24;;;;;;;;;;;10.30;99.90;;;;;;5016494;28;20015;-71
2021/12/07 11:42:51;;;;;;;;;;;10.30;99.90;;;;;;5016594;28;19935;-71
2021/12/07 11:45:18;;;;;;;;;;;10.30;99.90;;;;;;4999404;28;19929;-71
2021/12/07 11:47:47;;;;;;;;;;;10.30;99.90;;;;;;5015083;28;19980;-72
2021/12/07 11:50:17;;;;;;;;;;;10.20;99.90;;;;;;5022422;28;19937;-71
2021/12/07 11:52:44;;;;;;;;;;;10.20;99.90;;;;;;5027242;28;20579;-72
2021/12/07 11:55:11;;;;;;;;;;;10.20;99.90;;;;;;5025947;28;19925;-72
2021/12/07 11:57:39;;;;;;;;;;;10.20;99.90;;;;;;5025231;28;19928;-71
2021/12/07 12:00:07;;;;;;;;;;;10.20;99.90;;;;;;5006964;28;19921;-71
2021/12/07 12:02:36;;;;;;;;;;;10.10;99.90;;;;;;5023209;28;19936;-71
2021/12/07 12:05:03;;;;;;;;;;;10.20;99.90;;;;;;5010312;28;19929;-72
2021/12/07 12:07:31;;;;;;;;;;;10.20;99.90;;;;;;5010319;28;19929;-72
2021/12/07 12:09:58;;;;;;;;;;;10.10;99.90;;;;;;5006738;28;19925;-71
2021/12/07 12:12:27;;;;;;;;;;;10.00;99.90;;;;;;5007147;28;19924;-72
2021/12/07 12:15:01;;;;;;;;;;;10.00;99.90;;;;;;5020297;28;20310;-71
2021/12/07 12:17:37;;;;;;;;;;;10.00;99.90;;;;;;5016355;28;20413;-71
2021/12/07 12:20:09;;;;;;;;;;;10.00;99.90;;;;;;5018524;28;19921;-73
2021/12/07 12:22:39;;;;;;;;;;;10.00;99.90;;;;;;5013714;28;19948;-72
2021/12/07 12:25:07;;;;;;;;;;;9.90;99.90;;;;;;5015046;28;19936;-73
2021/12/07 12:27:35;;;;;;;;;;;9.80;99.90;;;;;;5017064;28;19921;-72
2021/12/07 12:30:04;;;;;;;;;;;9.70;99.90;;;;;;5021549;28;20404;-73
2021/12/07 12:32:32;;;;;;;;;;;9.70;99.90;;;;;;5013434;28;19925;-71
2021/12/07 12:34:59;;;;;;;;;;;9.60;99.90;;;;;;5012746;28;20349;-76
2021/12/07 12:37:27;;;;;;;;;;;9.60;99.90;;;;;;5012285;28;20246;-73
2021/12/07 12:39:56;;;;;;;;;;;9.60;99.90;;;;;;5003607;28;20377;-73
2021/12/07 12:42:28;;;;;;;;;;;9.60;99.90;;;;;;5024467;28;19932;-72
2021/12/07 12:44:59;;;;;;;;;;;9.60;99.90;;;;;;5024687;28;20816;-72
2021/12/07 12:47:27;;;;;;;;;;;9.70;99.90;;;;;;5021621;28;19944;-72
2021/12/07 12:49:54;;;;;;;;;;;9.70;99.90;;;;;;5020121;28;19924;-72
2021/12/07 12:52:35;;;;;;;;;;;9.60;99.90;;;;;;5006064;28;19925;-72
2021/12/07 12:55:04;;;;;;;;;;;9.60;99.90;;;;;;5026813;28;19928;-72
2021/12/07 12:57:31;;;;;;;;;;;9.50;99.90;;;;;;5026888;28;19928;-72
2021/12/07 12:59:58;;;;;;;;;;;9.50;99.90;;;;;;5030145;28;20008;-72
2021/12/07 13:02:28;;;;;;;;;;;9.40;99.90;;;;;;5029206;28;19925;-73
2021/12/07 13:05:01;;;;;;;;;;;9.40;99.90;;;;;;5017678;28;19924;-73
2021/12/07 13:07:28;;;;;;;;;;;9.40;99.90;;;;;;5010259;28;19978;-73
2021/12/07 13:09:56;;;;;;;;;;;9.30;99.90;;;;;;5028580;28;19936;-72
2021/12/07 13:12:25;;;;;;;;;;;9.20;99.90;;;;;;5026359;28;19920;-72
2021/12/07 13:14:57;;;;;;;;;;;9.20;99.90;;;;;;5030838;28;19929;-73
2021/12/07 13:17:26;;;;;;;;;;;9.10;99.90;;;;;;5030715;28;19921;-73
2021/12/07 13:20:10;;;;;;;;;;;9.00;99.90;;;;;;5027159;28;20019;-73
2021/12/07 13:22:39;;;;;;;;;;;8.90;99.90;;;;;;5029336;28;19925;-72
2021/12/07 13:25:07;;;;;;;;;;;8.80;99.90;;;;;;5028200;28;19928;-72
2021/12/07 13:27:36;;;;;;;;;;;8.80;99.90;;;;;;5029946;28;19940;-72
2021/12/07 13:30:04;;;;;;;;;;;8.80;99.90;;;;;;5027505;28;19929;-72
2021/12/07 13:32:30;;;;;;;;;;;8.60;99.90;;;;;;5033302;28;19924;-72
2021/12/07 13:35:02;;;;;;;;;;;8.40;99.90;;;;;;5031740;28;19928;-72
2021/12/07 13:37:45;;;;;;;;;;;8.40;99.90;;;;;;5035928;28;19935;-72
2021/12/07 13:40:19;;;;;;;;;;;8.40;99.90;;;;;;5035950;28;19929;-72
2021/12/07 13:42:50;;;;;;;;;;;8.30;99.90;;;;;;5029584;28;19937;-72
2021/12/07 13:45:19;;;;;;;;;;;8.20;99.90;;;;;;5030661;28;19992;-72
2021/12/07 13:47:47;;;;;;;;;;;8.10;99.90;;;;;;5027589;28;19947;-72
2021/12/07 13:50:14;;;;;;;;;;;8.00;99.90;;;;;;5027588;28;19921;-72
2021/12/07 13:52:42;;;;;;;;;;;8.00;99.90;;;;;;5037058;28;19932;-73
2021/12/07 13:55:10;;;;;;;;;;;7.80;99.90;;;;;;5023991;28;19936;-72
2021/12/07 13:57:39;;;;;;;;;;;7.80;99.90;;;;;;5010360;28;20337;-73
2021/12/07 14:00:10;;;;;;;;;;;7.70;99.90;;;;;;5027148;28;19924;-73
2021/12/07 14:02:40;;;;;;;;;;;7.60;99.90;;;;;;5022435;28;20329;-72
2021/12/07 14:05:09;;;;;;;;;;;7.50;99.90;;;;;;5019035;28;20153;-72
2021/12/07 14:07:37;;;;;;;;;;;9.10;99.90;;;;;;5027360;28;20653;-72
2021/12/07 14:10:08;;;;;;;;;;;7.40;99.90;;;;;;5007012;28;19933;-73
2021/12/07 14:12:35;;;;;;;;;;;7.30;99.90;;;;;;5024919;28;19925;-73
2021/12/07 14:15:09;;;;;;;;;;;7.20;99.90;;;;;;5027596;28;19925;-72
2021/12/07 14:17:41;;;;;;;36.83;7.20;;;7.10;99.90;;;;;;5020413;28;20062;-72
2021/12/07 14:20:10;;;;;;;29.77;6.10;;;7.00;99.90;;;;;;5022728;28;20298;-72
2021/12/07 14:22:37;;;;;;;34.20;6.33;;;8.00;99.90;;;;;;5028024;28;20233;-72
2021/12/07 14:25:05;;;;;;;31.23;6.07;;;6.80;99.90;;;;;;5023441;28;20229;-73
2021/12/07 14:27:34;;;;;;;34.50;6.50;;;6.80;99.90;;;;;;5023396;28;20285;-72
2021/12/07 14:30:02;;;;;;;28.43;5.90;;;6.70;99.90;;;;;;5021496;28;20394;-71
2021/12/07 14:32:30;;;;;;;33.60;6.17;;;6.70;99.90;;;;;;5020795;28;20242;-71
2021/12/07 14:34:59;;;;;;;29.33;5.43;;;6.60;99.90;;;;;;5022482;28;20333;-71
2021/12/07 14:37:27;;;;;;;51.47;6.87;;;6.50;99.90;;;;;;5034872;28;20205;-71
2021/12/07 14:39:54;;;;;;;38.67;7.60;;;6.50;99.90;;;;;;5030726;28;20205;-70
2021/12/07 14:42:22;;;;;;;39.00;7.03;;;6.40;99.90;;;;;;5029444;28;20328;-71
2021/12/07 14:44:52;;;;;;;26.97;5.53;;;6.30;99.90;;;;;;5021824;28;20210;-72
2021/12/07 14:47:19;;;;;;;35.87;6.67;;;6.20;99.90;;;;;;5022326;28;20705;-72
2021/12/07 14:49:50;;;;;;;36.80;6.57;;;6.20;99.90;;;;;;5025533;28;20225;-71
2021/12/07 14:52:19;;;;;;;33.17;6.17;;;6.10;99.90;;;;;;5024584;28;20234;-72
2021/12/07 14:54:47;;;;;;;28.77;5.63;;;6.10;99.90;;;;;;5026874;28;20281;-71
2021/12/07 14:57:15;;;;;;;25.07;5.20;;;5.80;99.90;;;;;;5022133;28;20210;-71
2021/12/07 14:59:43;;;;;;;32.83;6.37;;;6.00;99.90;;;;;;5025496;28;20218;-71
2021/12/07 15:02:11;;;;;;;24.77;5.30;;;5.90;99.90;;;;;;5006574;28;20245;-72
2021/12/07 15:04:39;;;;;;;30.40;5.80;;;5.80;99.90;;;;;;5025352;28;20226;-71
2021/12/07 15:07:12;;;;;;;28.67;4.90;;;5.90;99.90;;;;;;5028625;28;20225;-72
2021/12/07 15:09:40;;;;;;;35.70;7.33;;;5.80;99.90;;;;;;5025913;28;20221;-72
2021/12/07 15:12:10;;;;;;;31.03;5.80;;;5.80;99.90;;;;;;5024351;28;20244;-72
2021/12/07 15:14:37;;;;;;;24.67;4.87;;;4.80;99.90;;;;;;5019261;28;20210;-72
2021/12/07 15:17:06;;;;;;;31.80;6.10;;;5.60;99.90;;;;;;5024957;28;20216;-71
2021/12/07 15:19:34;;;;;;;30.63;5.80;;;5.60;99.90;;;;;;5019496;28;20219;-72